Time;durP1;ratioP1;P1;durP2;ratioP2;P2;SDS_P1;SDS_P2;PMS_P1;PMS_P2;Temp;Humidity;BMP_temperature;BMP_pressure;BME280_temperature;BME280_humidity;BME280_pressure;Samples;Min_cycle;Max_cycle;Signal;HPM_P1;HPM_P2
2022/12/06 00:00:26;;;;;;;9.80;6.15;;;;;;;7.42;75.17;100595.16;10342456;28;20137;-64
2022/12/06 00:05:30;;;;;;;13.15;6.60;;;;;;;7.46;74.54;100596.53;10348594;28;20089;-65
2022/12/06 00:10:34;;;;;;;11.38;6.07;;;;;;;7.54;74.12;100597.47;10342858;28;20517;-64
2022/12/06 00:15:36;;;;;;;9.60;5.63;;;;;;;7.60;74.14;100589.81;10336464;28;20077;-65
2022/12/06 00:20:37;;;;;;;12.07;6.22;;;;;;;7.63;74.65;100589.53;10327426;28;20137;-65
2022/12/06 00:25:39;;;;;;;8.85;5.47;;;;;;;7.65;74.10;100587.56;10342067;28;20129;-65
2022/12/06 00:30:40;;;;;;;10.55;5.35;;;;;;;7.67;73.94;100577.53;10340721;28;20096;-65
2022/12/06 00:35:42;;;;;;;13.27;5.95;;;;;;;7.70;73.98;100590.59;10346665;28;20408;-65
2022/12/06 00:40:43;;;;;;;6.85;4.47;;;;;;;7.65;74.05;100584.88;10329429;28;20458;-64
2022/12/06 00:45:44;;;;;;;6.68;3.42;;;;;;;7.67;74.04;100574.88;10344458;28;20156;-64
2022/12/06 00:50:46;;;;;;;4.47;2.60;;;;;;;7.61;74.50;100573.63;10350081;28;20074;-65
2022/12/06 00:55:47;;;;;;;3.85;2.70;;;;;;;7.53;74.00;100568.19;10348716;28;20062;-64
2022/12/06 01:00:49;;;;;;;5.43;2.75;;;;;;;7.49;74.04;100578.34;10346242;28;20038;-64
2022/12/06 01:05:51;;;;;;;7.57;3.05;;;;;;;7.55;74.10;100579.59;10342619;28;20053;-65
2022/12/06 01:10:53;;;;;;;4.03;2.53;;;;;;;7.55;73.89;100590.28;10343386;28;20449;-64
2022/12/06 01:15:55;;;;;;;4.55;2.33;;;;;;;7.50;74.27;100587.22;10337569;28;20081;-64
2022/12/06 01:21:02;;;;;;;3.08;1.90;;;;;;;7.39;73.50;100584.75;10341668;28;20511;-64
2022/12/06 01:26:06;;;;;;;4.70;2.40;;;;;;;7.37;74.41;100586.75;10324188;28;20473;-64
2022/12/06 01:31:07;;;;;;;3.58;1.73;;;;;;;7.25;73.67;100591.47;10330827;28;20482;-64
2022/12/06 01:36:15;;;;;;;4.20;1.60;;;;;;;7.27;73.41;100592.16;10339835;28;20057;-64
2022/12/06 01:41:17;;;;;;;3.88;1.98;;;;;;;7.15;73.59;100588.81;10342351;28;20118;-64
2022/12/06 01:46:48;;;;;;;2.78;1.52;;;;;;;7.21;73.16;100582.88;10339705;28;20461;-64
2022/12/06 01:52:05;;;;;;;3.83;2.10;;;;;;;7.28;73.09;100588.47;10312630;28;20464;-64
2022/12/06 01:57:10;;;;;;;2.40;1.40;;;;;;;7.28;72.61;100581.28;10344539;28;20569;-63
2022/12/06 02:02:12;;;;;;;1.85;1.27;;;;;;;7.29;72.89;100577.63;10343789;28;20117;-64
2022/12/06 02:07:14;;;;;;;2.15;1.70;;;;;;;7.34;72.78;100569.97;10345903;28;20053;-64
2022/12/06 02:12:15;;;;;;;3.95;2.03;;;;;;;7.39;72.61;100568.72;10336560;28;20073;-64
2022/12/06 02:17:23;;;;;;;2.50;1.17;;;;;;;7.29;73.06;100558.91;10340415;28;20073;-63
2022/12/06 02:22:43;;;;;;;2.65;1.33;;;;;;;7.20;72.70;100558.97;10340268;28;20613;-63
2022/12/06 02:28:02;;;;;;;2.30;1.40;;;;;;;6.99;73.57;100556.53;10339798;28;20077;-64
2022/12/06 02:33:14;;;;;;;1.85;1.13;;;;;;;6.78;73.27;100557.59;10335154;28;20136;-64
2022/12/06 02:38:20;;;;;;;3.10;1.58;;;;;;;6.72;73.47;100558.19;10337652;28;20133;-64
2022/12/06 02:43:26;;;;;;;4.05;2.15;;;;;;;6.64;72.74;100560.75;10342268;28;20144;-64
2022/12/06 02:48:31;;;;;;;3.67;1.95;;;;;;;6.58;72.79;100554.16;10332556;28;20149;-64
2022/12/06 02:53:37;;;;;;;3.92;1.60;;;;;;;6.56;73.16;100553.47;10346998;28;20141;-64
2022/12/06 02:58:38;;;;;;;2.85;1.38;;;;;;;6.62;73.06;100552.03;10347666;28;20079;-64
2022/12/06 03:03:58;;;;;;;2.97;1.58;;;;;;;6.66;72.29;100548.09;10350539;28;20073;-65
2022/12/06 03:09:17;;;;;;;3.25;1.52;;;;;;;6.77;72.14;100547.88;10345310;28;20494;-65
2022/12/06 03:14:24;;;;;;;3.63;1.77;;;;;;;6.82;71.40;100552.81;10347203;28;20149;-65
2022/12/06 03:19:27;;;;;;;;;;;;;;;6.85;71.83;100553.38;10344803;28;20066;-64
2022/12/06 03:24:32;;;;;;;3.78;2.20;;;;;;;6.91;71.81;100555.44;10346035;28;19957;-64
2022/12/06 03:29:39;;;;;;;3.55;1.70;;;;;;;6.97;72.51;100553.16;10349001;28;20624;-64
2022/12/06 03:34:46;;;;;;;5.75;2.50;;;;;;;6.94;72.48;100544.44;10344419;28;20462;-65
2022/12/06 03:40:05;;;;;;;4.47;2.55;;;;;;;6.97;71.75;100542.47;10345595;28;20666;-64
2022/12/06 03:45:10;;;;;;;4.20;1.92;;;;;;;6.99;72.20;100525.31;10353058;28;20069;-64
2022/12/06 03:50:18;;;;;;;4.10;2.28;;;;;;;7.02;71.64;100529.50;10344550;28;20077;-64
2022/12/06 03:55:19;;;;;;;4.33;2.83;;;;;;;6.97;71.53;100527.28;10334987;28;20137;-64
2022/12/06 04:00:20;;;;;;;4.30;2.83;;;;;;;6.96;71.81;100525.59;10347344;28;20046;-64
2022/12/06 04:05:22;;;;;;;5.30;2.40;;;;;;;7.00;71.90;100521.63;10339307;28;20145;-64
2022/12/06 04:10:23;;;;;;;7.00;2.80;;;;;;;6.99;72.18;100519.09;10332218;28;20069;-64
2022/12/06 04:15:26;;;;;;;3.47;2.33;;;;;;;7.00;71.69;100516.28;10350101;28;20150;-64
2022/12/06 04:23:02;;;;;;;4.68;2.70;;;;;;;7.01;71.59;100512.66;10342853;28;20133;-64
2022/12/06 04:25:51;;;;;;;5.38;3.00;;;;;;;7.01;71.59;100515.31;10348101;28;20141;-65
2022/12/06 04:46:58;;;;;;;5.55;2.72;;;;;;;6.98;71.85;100502.25;10345563;28;20141;-64
2022/12/06 04:52:01;;;;;;;5.35;2.75;;;;;;;6.98;72.00;100494.22;10346469;28;20042;-64
2022/12/06 04:57:03;;;;;;;6.78;3.55;;;;;;;6.93;71.85;100489.34;10348718;28;20060;-65
2022/12/06 05:02:06;;;;;;;4.38;2.72;;;;;;;6.85;72.44;100501.75;10345922;28;20398;-64
2022/12/06 05:07:08;;;;;;;4.80;3.03;;;;;;;6.82;72.17;100504.72;10345732;28;20137;-65
2022/12/06 05:12:10;;;;;;;6.40;3.35;;;;;;;6.85;71.83;100499.94;10348030;28;20084;-65
2022/12/06 05:17:11;;;;;;;4.13;2.85;;;;;;;6.83;71.92;100493.91;10345092;28;20140;-65
2022/12/06 05:22:12;;;;;;;5.40;3.22;;;;;;;6.81;72.37;100503.84;10347194;28;20589;-65
2022/12/06 05:27:14;;;;;;;4.78;3.28;;;;;;;6.78;71.71;100506.84;10335462;28;20133;-66
2022/12/06 05:32:15;;;;;;;5.50;3.47;;;;;;;6.60;72.78;100509.44;10339919;28;20137;-68
2022/12/06 05:37:16;;;;;;;4.78;3.05;;;;;;;6.54;72.59;100508.19;10337065;28;20137;-68
2022/12/06 05:42:18;;;;;;;5.80;3.58;;;;;;;6.55;72.12;100515.22;10330086;28;20137;-69
2022/12/06 05:47:23;;;;;;;6.05;3.05;;;;;;;6.67;72.51;100510.53;10336194;28;20066;-68
2022/12/06 05:52:24;;;;;;;6.38;3.65;;;;;;;6.75;71.35;100513.34;10343569;28;20113;-68
2022/12/06 05:57:25;;;;;;;4.55;3.05;;;;;;;6.77;72.07;100513.16;10341007;28;20129;-70
2022/12/06 06:02:27;;;;;;;7.75;5.10;;;;;;;6.78;71.35;100511.34;10346331;28;20141;-65
2022/12/06 06:07:28;;;;;;;4.40;3.08;;;;;;;6.82;71.45;100505.56;10340885;28;20104;-69
2022/12/06 06:12:30;;;;;;;4.63;3.28;;;;;;;6.81;71.89;100503.03;10343936;28;20146;-69
2022/12/06 06:17:33;;;;;;;4.25;2.95;;;;;;;6.78;71.93;100500.66;10336259;28;20058;-67
2022/12/06 06:22:36;;;;;;;5.53;3.25;;;;;;;6.70;72.05;100501.41;10349068;28;20041;-68
2022/12/06 06:27:37;;;;;;;4.97;3.22;;;;;;;6.76;71.25;100498.13;10352752;28;20600;-68
2022/12/06 06:32:39;;;;;;;5.32;3.50;;;;;;;6.81;70.77;100498.50;10358505;28;20088;-67
2022/12/06 06:37:40;;;;;;;4.93;2.90;;;;;;;6.75;71.07;100507.97;10355664;28;20061;-65
2022/12/06 06:42:42;;;;;;;4.13;3.47;;;;;;;6.82;72.05;100510.91;10356556;28;20104;-68
2022/12/06 06:47:43;;;;;;;4.70;3.25;;;;;;;6.92;71.00;100514.34;10356064;28;20137;-67
2022/12/06 06:52:44;;;;;;;7.88;4.13;;;;;;;6.94;72.08;100515.06;10353686;28;20038;-70
2022/12/06 06:57:46;;;;;;;6.00;3.17;;;;;;;6.99;71.20;100519.97;10357410;28;20066;-69
2022/12/06 07:02:47;;;;;;;5.22;2.97;;;;;;;7.02;71.26;100521.50;10359711;28;20174;-67
2022/12/06 07:07:49;;;;;;;3.47;2.47;;;;;;;6.90;71.85;100518.19;10349375;28;20050;-59
2022/12/06 07:12:50;;;;;;;5.93;3.75;;;;;;;6.90;71.31;100521.69;10353359;28;20046;-60
2022/12/06 07:17:52;;;;;;;7.55;3.72;;;;;;;6.97;71.64;100529.97;10368463;28;20042;-61
2022/12/06 07:22:54;;;;;;;6.93;3.70;;;;;;;6.89;70.81;100525.38;10369605;28;20065;-59
2022/12/06 07:27:55;;;;;;;7.35;4.15;;;;;;;6.80;71.82;100520.91;10358123;28;20141;-61
2022/12/06 07:32:57;;;;;;;4.97;3.45;;;;;;;6.78;71.52;100522.03;10368193;28;20064;-60
2022/12/06 07:38:00;;;;;;;8.10;4.72;;;;;;;6.86;70.71;100530.16;10370384;28;20041;-62
2022/12/06 07:48:21;;;;;;;6.85;3.35;;;;;;;6.91;71.79;100539.41;10357415;28;20627;-61
2022/12/06 07:53:23;;;;;;;6.78;4.55;;;;;;;6.94;71.59;100539.09;10365219;28;20057;-61
2022/12/06 07:58:24;;;;;;;7.20;4.63;;;;;;;7.04;71.20;100538.22;10374107;28;20054;-60
2022/12/06 08:03:25;;;;;;;5.28;4.28;;;;;;;7.07;71.56;100540.59;10371877;28;20050;-60
2022/12/06 08:08:27;;;;;;;9.38;4.63;;;;;;;7.06;71.10;100539.75;10372603;28;20054;-60
2022/12/06 08:13:30;;;;;;;5.10;2.25;;;;;;;6.97;71.25;100527.28;10367825;28;20042;-62
2022/12/06 08:18:32;;;;;;;8.35;3.80;;;;;;;7.06;71.92;100528.22;10355349;28;20057;-60
2022/12/06 08:23:33;;;;;;;5.80;3.83;;;;;;;7.09;71.72;100531.44;10364516;28;20057;-60
2022/12/06 08:28:36;;;;;;;2.97;2.10;;;;;;;6.84;71.51;100534.81;10362085;28;20079;-61
2022/12/06 08:33:37;;;;;;;3.85;2.67;;;;;;;6.83;71.81;100544.66;10363301;28;20066;-61
2022/12/06 08:38:39;;;;;;;3.13;2.03;;;;;;;6.83;72.02;100550.00;10365901;28;20045;-62
2022/12/06 08:43:40;;;;;;;1.88;1.40;;;;;;;6.90;71.34;100536.88;10363474;28;20078;-61
2022/12/06 08:48:41;;;;;;;2.15;1.55;;;;;;;7.02;70.39;100533.03;10359785;28;20081;-61
2022/12/06 08:53:44;;;;;;;4.28;1.38;;;;;;;7.02;70.49;100524.16;10359736;28;20050;-60
2022/12/06 08:58:45;;;;;;;2.13;1.70;;;;;;;7.22;70.51;100536.44;10352913;28;20082;-60
2022/12/06 09:03:47;;;;;;;2.67;1.23;;;;;;;7.32;69.80;100547.06;10354857;28;20145;-60
2022/12/06 09:08:49;;;;;;;3.17;1.42;;;;;;;7.31;69.92;100550.75;10358388;28;20076;-61
2022/12/06 09:13:50;;;;;;;2.10;1.40;;;;;;;7.51;69.48;100546.94;10356954;28;20039;-60
2022/12/06 09:18:52;;;;;;;3.72;1.63;;;;;;;7.62;68.62;100551.25;10341368;28;20421;-61
2022/12/06 09:23:54;;;;;;;2.30;1.55;;;;;;;7.71;68.85;100555.66;10356013;28;20113;-60
2022/12/06 09:28:57;;;;;;;6.15;1.95;;;;;;;7.81;69.11;100552.09;10357417;28;20077;-61
2022/12/06 09:33:59;;;;;;;1.70;1.33;;;;;;;7.86;68.56;100553.31;10358691;28;20042;-60
2022/12/06 09:39:04;;;;;;;4.70;2.10;;;;;;;7.97;68.16;100554.91;10339070;28;20704;-61
2022/12/06 09:44:21;;;;;;;5.18;2.08;;;;;;;7.94;67.96;100557.91;10352545;28;20073;-62
2022/12/06 09:49:44;;;;;;;4.22;1.77;;;;;;;7.93;68.58;100557.03;10327080;28;20517;-61
2022/12/06 09:54:51;;;;;;;2.13;1.67;;;;;;;7.78;68.16;100555.06;10345553;28;20049;-60
2022/12/06 10:00:05;;;;;;;2.35;1.80;;;;;;;7.81;68.02;100546.75;10352713;28;20053;-63
2022/12/06 10:05:15;;;;;;;3.03;1.92;;;;;;;7.68;68.86;100555.13;10344862;28;20061;-61
2022/12/06 10:10:32;;;;;;;3.95;1.88;;;;;;;7.73;68.11;100542.97;10344164;28;20084;-60
2022/12/06 10:15:44;;;;;;;4.43;2.10;;;;;;;7.84;68.01;100539.25;10368284;28;20046;-62
2022/12/06 10:20:51;;;;;;;3.00;2.05;;;;;;;7.96;67.87;100545.22;10359721;28;20080;-64
2022/12/06 10:26:18;;;;;;;1.77;1.40;;;;;;;7.79;68.35;100538.03;10376268;28;20049;-65
2022/12/06 10:31:22;;;;;;;3.20;1.20;;;;;;;7.73;67.79;100544.81;10364057;28;20050;-64
2022/12/06 10:37:01;;;;;;;2.85;1.73;;;;;;;7.55;68.07;100544.81;10358741;28;20054;-60
2022/12/06 10:42:25;;;;;;;2.28;1.33;;;;;;;7.59;68.49;100540.84;10329232;28;20501;-61
2022/12/06 10:47:33;;;;;;;2.88;1.45;;;;;;;7.57;68.59;100534.81;10329269;28;20081;-61
2022/12/06 10:52:46;;;;;;;1.65;1.13;;;;;;;7.64;67.92;100530.53;10349386;28;20042;-61
2022/12/06 10:58:21;;;;;;;1.83;0.93;;;;;;;7.75;67.97;100522.25;10334001;28;20101;-61
2022/12/06 11:03:35;;;;;;;1.30;0.80;;;;;;;7.85;68.14;100538.25;10347533;28;20144;-60
2022/12/06 11:08:42;;;;;;;0.65;0.43;;;;;;;7.93;67.43;100530.28;10333613;28;20069;-61
2022/12/06 11:13:48;;;;;;;0.90;0.50;;;;;;;8.02;67.23;100531.19;10357572;28;20189;-59
2022/12/06 11:18:50;;;;;;;1.00;0.55;;;;;;;8.12;67.45;100534.63;10364549;28;20054;-59
2022/12/06 11:24:13;;;;;;;5.47;0.65;;;;;;;8.12;67.28;100529.28;10345804;28;20058;-62
2022/12/06 11:29:15;;;;;;;1.20;0.60;;;;;;;8.20;67.06;100530.34;10355002;28;20080;-60
2022/12/06 11:34:42;;;;;;;0.90;0.70;;;;;;;8.12;66.77;100517.72;10338748;28;20043;-63
2022/12/06 11:39:43;;;;;;;1.08;0.60;;;;;;;8.21;67.00;100514.09;10345339;28;20045;-61
2022/12/06 11:44:53;;;;;;;2.83;0.60;;;;;;;8.23;66.75;100511.25;10370772;28;20042;-61
2022/12/06 11:49:56;;;;;;;0.80;0.55;;;;;;;8.22;66.81;100504.25;10364221;28;20046;-59
2022/12/06 11:55:12;;;;;;;1.23;0.60;;;;;;;8.31;66.19;100511.31;10344113;28;20145;-62
2022/12/06 12:00:24;;;;;;;1.30;0.57;;;;;;;8.27;65.79;100505.47;10356656;28;20116;-62
2022/12/06 12:05:29;;;;;;;1.23;0.60;;;;;;;8.26;65.89;100498.41;10336583;28;20072;-60
2022/12/06 12:10:33;;;;;;;1.20;0.70;;;;;;;8.37;65.95;100493.78;10359679;28;20046;-62
2022/12/06 12:15:35;;;;;;;2.35;0.75;;;;;;;8.51;65.11;100498.56;10364931;28;20054;-62
2022/12/06 12:20:43;;;;;;;2.90;0.82;;;;;;;8.58;65.40;100494.28;10354387;28;20057;-63
2022/12/06 12:26:02;;;;;;;1.67;1.02;;;;;;;8.58;65.56;100501.47;10363681;28;20437;-62
2022/12/06 12:31:25;;;;;;;1.40;0.88;;;;;;;8.51;65.68;100496.75;10366940;28;20053;-63
2022/12/06 12:36:28;;;;;;;2.40;0.73;;;;;;;8.37;65.13;100505.31;10360911;28;20057;-64
2022/12/06 12:41:38;;;;;;;5.38;1.70;;;;;;;8.28;65.27;100506.28;10366972;28;20108;-63
2022/12/06 12:46:44;;;;;;;1.73;0.70;;;;;;;8.49;65.18;100505.94;10354031;28;20100;-64
2022/12/06 12:51:45;;;;;;;2.15;1.23;;;;;;;8.69;64.47;100495.84;10356541;28;20073;-64
2022/12/06 12:56:49;;;;;;;3.80;1.48;;;;;;;8.84;64.54;100496.06;10350766;28;20083;-62
2022/12/06 13:02:26;;;;;;;3.42;1.30;;;;;;;8.80;64.56;100500.91;10349888;28;20100;-65
2022/12/06 13:07:33;;;;;;;2.97;1.20;;;;;;;8.92;64.19;100493.41;10337189;28;20101;-64
2022/12/06 13:12:41;;;;;;;1.83;0.95;;;;;;;8.92;63.96;100490.72;10351835;28;20132;-63
2022/12/06 13:17:47;;;;;;;1.05;0.80;;;;;;;8.74;64.39;100488.16;10346335;28;20078;-63
2022/12/06 13:22:54;;;;;;;1.45;0.75;;;;;;;8.44;64.41;100490.34;10347507;28;20080;-62
2022/12/06 13:27:59;;;;;;;0.83;0.53;;;;;;;8.25;64.87;100495.88;10344243;28;20043;-62
2022/12/06 13:33:20;;;;;;;1.95;0.95;;;;;;;7.92;65.06;100488.47;10345980;28;20049;-65
2022/12/06 13:38:36;;;;;;;2.25;0.85;;;;;;;7.86;64.71;100491.75;10347486;28;20093;-63
2022/12/06 13:43:37;;;;;;;1.25;0.70;;;;;;;7.73;65.17;100488.63;10348624;28;20409;-64
2022/12/06 13:49:03;;;;;;;1.55;0.80;;;;;;;7.81;64.42;100494.06;10337758;28;20046;-62
2022/12/06 13:54:05;;;;;;;1.65;0.85;;;;;;;7.69;64.80;100495.28;10334457;28;20080;-63
2022/12/06 13:59:13;;;;;;;1.52;0.90;;;;;;;7.75;64.23;100495.50;10320717;28;20064;-65
2022/12/06 14:04:30;;;;;;;1.90;0.98;;;;;;;7.87;64.35;100485.41;10344542;28;20093;-66
2022/12/06 14:09:46;;;;;;;1.83;0.88;;;;;;;7.82;64.86;100490.41;10339472;28;20154;-65
2022/12/06 14:15:00;;;;;;;4.60;1.23;;;;;;;7.75;64.31;100492.81;10340456;28;20728;-66
2022/12/06 14:20:02;;;;;;;1.00;0.77;;;;;;;7.52;65.14;100499.63;10339804;28;20125;-65
2022/12/06 14:25:19;;;;;;;2.30;1.50;;;;;;;7.59;64.81;100491.84;10347716;28;20164;-65
2022/12/06 14:30:23;;;;;;;2.13;0.82;;;;;;;7.63;64.42;100496.75;10337498;28;20133;-64
2022/12/06 14:35:29;;;;;;;1.50;1.20;;;;;;;7.43;65.09;100487.19;10342141;28;20049;-67
2022/12/06 14:45:58;;;;;;;2.20;1.40;;;;;;;7.43;64.99;100493.38;10352654;28;20053;-65
2022/12/06 14:51:01;;;;;;;4.82;2.78;;;;;;;7.40;64.88;100492.84;10344978;28;20046;-63
2022/12/06 14:56:04;;;;;;;3.95;1.88;;;;;;;7.44;65.66;100489.69;10347046;28;20108;-62
2022/12/06 15:01:17;;;;;;;3.55;1.60;;;;;;;7.57;65.21;100485.81;10350274;28;20065;-62
2022/12/06 15:06:21;;;;;;;2.08;1.20;;;;;;;7.38;65.28;100492.16;10352817;28;20137;-63
2022/12/06 15:17:08;;;;;;;3.30;1.83;;;;;;;7.22;65.10;100488.31;10350038;28;20053;-63
2022/12/06 15:22:15;;;;;;;4.18;1.95;;;;;;;7.24;65.98;100483.66;10346776;28;20046;-62
2022/12/06 15:27:25;;;;;;;3.38;2.20;;;;;;;7.23;65.63;100484.66;10348421;28;20061;-62
2022/12/06 15:32:27;;;;;;;5.60;2.45;;;;;;;7.09;66.12;100483.34;10350203;28;20042;-61
2022/12/06 15:37:29;;;;;;;5.45;3.00;;;;;;;7.10;66.23;100478.81;10345392;28;20394;-69
2022/12/06 15:42:39;;;;;;;4.22;2.53;;;;;;;7.01;66.01;100474.38;10342093;28;20070;-67
2022/12/06 15:47:40;;;;;;;5.85;3.20;;;;;;;6.92;67.12;100482.28;10347210;28;20050;-68
2022/12/06 15:52:42;;;;;;;4.85;2.55;;;;;;;6.86;66.95;100482.06;10346883;28;20078;-68
2022/12/06 15:57:43;;;;;;;4.88;2.72;;;;;;;6.82;67.06;100486.84;10347568;28;20133;-68
2022/12/06 16:02:44;;;;;;;4.55;2.22;;;;;;;6.85;66.82;100486.56;10331053;28;20092;-68
2022/12/06 16:07:46;;;;;;;5.90;3.28;;;;;;;6.84;66.59;100474.19;10345253;28;20109;-68
2022/12/06 16:18:07;;;;;;;5.70;3.20;;;;;;;6.99;66.55;100477.22;10343671;28;20061;-68
2022/12/06 16:28:52;;;;;;;5.35;2.80;;;;;;;7.41;65.58;100476.63;10344905;28;20062;-70
2022/12/06 16:33:53;;;;;;;7.97;3.00;;;;;;;7.61;65.27;100476.50;10347192;28;20171;-69
2022/12/06 16:38:58;;;;;;;7.65;3.50;;;;;;;7.68;65.61;100474.88;10345625;28;20165;-69
2022/12/06 16:44:01;;;;;;;5.70;2.97;;;;;;;7.72;65.47;100474.41;10343858;28;20042;-69
2022/12/06 16:49:05;;;;;;;6.45;3.33;;;;;;;7.66;65.11;100485.75;10329435;28;20042;-69
2022/12/06 16:54:26;;;;;;;5.28;2.95;;;;;;;7.61;65.69;100477.31;10333240;28;20055;-72
2022/12/06 16:59:28;;;;;;;7.10;3.30;;;;;;;7.64;65.66;100474.34;10339325;28;20085;-70
2022/12/06 17:04:30;;;;;;;7.43;3.28;;;;;;;7.63;65.80;100474.50;10334665;28;20072;-73
2022/12/06 17:09:31;;;;;;;8.35;3.30;;;;;;;7.64;65.85;100471.69;10346500;28;20093;-70
2022/12/06 17:14:34;;;;;;;7.57;4.65;;;;;;;7.73;65.56;100481.44;10310236;28;20058;-69
2022/12/06 17:19:36;;;;;;;7.43;3.63;;;;;;;7.77;65.62;100478.47;10270093;28;20051;-67
2022/12/06 17:24:38;;;;;;;7.90;3.53;;;;;;;7.74;65.51;100476.91;10268597;28;20074;-67
2022/12/06 17:29:40;;;;;;;8.77;3.67;;;;;;;7.73;65.45;100483.28;10272426;28;20070;-70
2022/12/06 17:34:41;;;;;;;7.90;4.40;;;;;;;7.81;65.52;100482.50;10266503;28;20034;-71
2022/12/06 17:39:43;;;;;;;12.02;3.47;;;;;;;7.75;65.37;100484.78;10255905;28;20084;-70
2022/12/06 17:44:44;;;;;;;6.20;3.45;;;;;;;7.71;65.19;100482.59;10268637;28;20109;-68
2022/12/06 17:49:46;;;;;;;8.07;3.97;;;;;;;7.74;65.95;100484.94;10261318;28;20115;-72
2022/12/06 17:54:47;;;;;;;6.35;3.75;;;;;;;7.62;65.72;100486.19;10282309;28;20466;-72
2022/12/06 17:59:49;;;;;;;7.25;4.05;;;;;;;7.66;65.31;100480.41;10268474;28;20072;-71
2022/12/06 18:04:51;;;;;;;7.65;3.35;;;;;;;7.55;65.86;100483.28;10266848;28;20043;-72
2022/12/06 18:09:52;;;;;;;5.72;3.28;;;;;;;7.29;66.07;100489.41;10266441;28;20101;-74
2022/12/06 18:14:54;;;;;;;5.25;3.00;;;;;;;7.29;66.43;100481.38;10263117;28;20078;-71
2022/12/06 18:19:55;;;;;;;6.43;3.42;;;;;;;7.13;65.81;100476.69;10338258;28;20054;-71
2022/12/06 18:24:57;;;;;;;5.03;2.85;;;;;;;7.03;66.62;100483.06;10324255;28;20077;-73
2022/12/06 18:29:58;;;;;;;6.22;3.25;;;;;;;6.96;65.58;100485.50;10354814;28;20078;-70
2022/12/06 18:35:00;;;;;;;5.00;2.78;;;;;;;6.96;65.95;100482.84;10358736;28;20050;-68
2022/12/06 18:40:03;;;;;;;7.20;3.55;;;;;;;6.87;65.82;100491.75;10359659;28;20077;-68
2022/12/06 18:45:06;;;;;;;8.88;3.33;;;;;;;6.70;66.40;100494.22;10353354;28;20081;-69
2022/12/06 18:50:07;;;;;;;7.88;3.65;;;;;;;6.71;66.22;100489.72;10360083;28;20050;-69
2022/12/06 18:55:10;;;;;;;7.57;4.00;;;;;;;6.80;66.73;100496.00;10356935;28;20061;-69
2022/12/06 19:00:12;;;;;;;7.10;3.90;;;;;;;6.82;65.92;100491.38;10343076;28;20081;-70
2022/12/06 19:05:14;;;;;;;6.75;4.13;;;;;;;6.78;65.82;100493.47;10356479;28;20050;-70
2022/12/06 19:10:36;;;;;;;9.07;4.00;;;;;;;6.80;65.98;100482.66;10345825;28;20062;-70
2022/12/06 19:15:37;;;;;;;7.35;4.00;;;;;;;6.81;65.41;100495.84;10353760;28;20073;-67
2022/12/06 19:20:39;;;;;;;8.55;4.50;;;;;;;6.87;65.30;100487.25;10348690;28;20130;-71
2022/12/06 19:25:40;;;;;;;9.02;5.15;;;;;;;6.95;65.25;100491.84;10348079;28;20124;-70
2022/12/06 19:30:42;;;;;;;10.63;5.05;;;;;;;6.94;65.28;100500.84;10333124;28;20239;-70
2022/12/06 19:35:58;;;;;;;9.20;5.18;;;;;;;6.86;65.25;100503.44;10335154;28;20053;-71
2022/12/06 19:41:08;;;;;;;11.75;5.72;;;;;;;6.70;65.40;100502.22;10350428;28;20066;-71
2022/12/06 19:46:20;;;;;;;14.70;5.55;;;;;;;6.54;66.05;100502.84;10348580;28;20130;-72
2022/12/06 19:51:22;;;;;;;10.02;5.53;;;;;;;6.39;66.19;100516.81;10315712;28;20053;-72
2022/12/06 19:56:24;;;;;;;10.10;5.47;;;;;;;6.38;66.27;100512.44;10349537;28;20136;-72
2022/12/06 20:01:28;;;;;;;11.52;5.78;;;;;;;6.32;65.75;100517.41;10354287;28;20466;-73
2022/12/06 20:06:30;;;;;;;14.50;6.13;;;;;;;6.17;66.33;100523.34;10328864;28;20482;-72
2022/12/06 20:16:55;;;;;;;13.68;7.60;;;;;;;6.05;66.52;100515.47;10355090;28;20088;-69
2022/12/06 20:21:56;;;;;;;14.43;6.68;;;;;;;6.06;66.00;100511.84;10339896;28;20114;-73
2022/12/06 20:26:58;;;;;;;14.93;6.90;;;;;;;6.03;65.75;100505.94;10348277;28;20053;-72
2022/12/06 20:32:00;;;;;;;10.77;5.72;;;;;;;5.94;65.98;100494.25;10350337;28;20105;-71
2022/12/06 20:37:03;;;;;;;12.73;6.40;;;;;;;5.82;65.87;100495.38;10356831;28;20085;-73
2022/12/06 20:42:05;;;;;;;14.20;6.78;;;;;;;5.81;65.84;100494.56;10343715;28;20050;-72
2022/12/06 20:47:07;;;;;;;16.20;7.47;;;;;;;5.80;65.98;100498.19;10346379;28;20061;-72
2022/12/06 20:52:09;;;;;;;16.77;7.60;;;;;;;5.83;65.64;100503.25;10341173;28;20053;-70
2022/12/06 20:57:10;;;;;;;14.85;7.65;;;;;;;5.90;65.67;100492.84;10350721;28;20050;-70
2022/12/06 21:02:12;;;;;;;14.95;7.50;;;;;;;5.89;65.82;100488.53;10343693;28;20081;-72
2022/12/06 21:07:13;;;;;;;13.10;6.10;;;;;;;5.98;65.35;100495.69;10344937;28;20125;-70
2022/12/06 21:12:15;;;;;;;11.93;6.22;;;;;;;6.08;65.50;100488.53;10330572;28;20144;-71
2022/12/06 21:17:16;;;;;;;11.90;6.30;;;;;;;6.12;65.17;100484.56;10343563;28;20077;-71
2022/12/06 21:22:17;;;;;;;11.32;6.45;;;;;;;6.09;64.95;100481.34;10336127;28;20073;-72
2022/12/06 21:27:19;;;;;;;12.32;6.28;;;;;;;6.07;65.61;100484.16;10344952;28;20073;-72
2022/12/06 21:32:20;;;;;;;10.35;5.65;;;;;;;6.05;65.13;100483.47;10345436;28;20050;-71
2022/12/06 21:37:22;;;;;;;12.27;6.60;;;;;;;6.06;65.63;100481.63;10345663;28;20081;-71
2022/12/06 21:42:23;;;;;;;14.30;6.90;;;;;;;6.06;65.59;100479.81;10342243;28;20140;-70
2022/12/06 21:47:25;;;;;;;16.10;7.88;;;;;;;6.19;65.72;100473.31;10345855;28;20141;-73
2022/12/06 21:52:26;;;;;;;15.52;7.85;;;;;;;6.28;65.80;100483.13;10344614;28;20136;-71
2022/12/06 21:57:27;;;;;;;17.17;8.57;;;;;;;6.32;65.52;100481.88;10346846;28;20081;-72
2022/12/06 22:02:29;;;;;;;14.45;7.47;;;;;;;6.42;65.20;100484.47;10348931;28;20089;-71
2022/12/06 22:07:32;;;;;;;15.77;7.45;;;;;;;6.49;65.52;100491.75;10346945;28;20511;-71
2022/12/06 22:12:34;;;;;;;14.85;8.13;;;;;;;6.59;65.50;100491.72;10342212;28;20054;-73
2022/12/06 22:17:35;;;;;;;17.13;8.35;;;;;;;6.60;65.23;100493.44;10330689;28;20073;-73
2022/12/06 22:22:37;;;;;;;16.17;8.57;;;;;;;6.69;64.44;100495.19;10337314;28;20077;-71
2022/12/06 22:27:38;;;;;;;17.77;9.60;;;;;;;6.71;64.71;100493.25;10349392;28;20101;-72
2022/12/06 22:32:39;;;;;;;19.60;9.30;;;;;;;6.69;65.34;100489.84;10345375;28;20413;-71
2022/12/06 22:37:41;;;;;;;16.35;8.27;;;;;;;6.71;65.78;100490.56;10333653;28;20496;-69
2022/12/06 22:42:42;;;;;;;20.55;8.75;;;;;;;6.70;66.13;100485.38;10350027;28;20051;-71
2022/12/06 22:47:45;;;;;;;20.08;8.18;;;;;;;6.73;65.31;100488.59;10331803;28;20069;-73
2022/12/06 22:52:46;;;;;;;16.83;8.85;;;;;;;6.74;65.15;100482.25;10347794;28;20082;-72
2022/12/06 22:57:48;;;;;;;18.10;9.27;;;;;;;6.77;65.96;100486.44;10342105;28;20850;-72
2022/12/06 23:02:49;;;;;;;15.15;8.45;;;;;;;6.79;65.72;100492.47;10358397;28;20544;-71
2022/12/06 23:07:50;;;;;;;21.50;9.27;;;;;;;6.73;65.82;100488.59;10359284;28;20056;-73
2022/12/06 23:12:52;;;;;;;16.27;8.45;;;;;;;6.71;65.63;100487.91;10348601;28;20579;-73
2022/12/06 23:17:53;;;;;;;15.73;8.43;;;;;;;6.60;66.73;100492.59;10340121;28;20115;-71
2022/12/06 23:22:55;;;;;;;18.80;8.32;;;;;;;6.45;67.30;100493.03;10347674;28;20042;-71
2022/12/06 23:27:56;;;;;;;19.50;8.35;;;;;;;6.43;66.38;100489.69;10362724;28;20077;-71
2022/12/06 23:32:57;;;;;;;18.02;8.95;;;;;;;6.49;66.98;100481.06;10354913;28;20100;-72
2022/12/06 23:37:59;;;;;;;15.63;8.57;;;;;;;6.45;66.69;100485.03;10355252;28;20537;-72
2022/12/06 23:43:00;;;;;;;16.40;8.70;;;;;;;6.53;67.47;100474.44;10345869;28;20049;-71
2022/12/06 23:48:02;;;;;;;17.73;8.75;;;;;;;6.50;67.01;100465.91;10346510;28;20070;-71
2022/12/06 23:53:03;;;;;;;18.58;9.38;;;;;;;6.53;66.71;100461.09;10344482;28;20046;-70
2022/12/06 23:58:04;;;;;;;18.77;9.45;;;;;;;6.55;67.17;100461.78;10343678;28;20141;-70
